sensor_id;sensor_type;location;lat;lon;timestamp;P1;P2;P0
69346;PMS5003;56494;43.536;5.048;2022-07-26T00:01:14;12.25;12.25;8.75
69346;PMS5003;56494;43.536;5.048;2022-07-26T00:03:41;11.00;11.00;8.00
69346;PMS5003;56494;43.536;5.048;2022-07-26T00:06:08;13.75;12.75;8.75
69346;PMS5003;56494;43.536;5.048;2022-07-26T00:08:34;12.25;9.75;6.50
69346;PMS5003;56494;43.536;5.048;2022-07-26T00:11:01;14.00;11.80;7.20
69346;PMS5003;56494;43.536;5.048;2022-07-26T00:13:33;13.50;12.00;7.50
69346;PMS5003;56494;43.536;5.048;2022-07-26T00:16:00;17.80;13.60;7.60
69346;PMS5003;56494;43.536;5.048;2022-07-26T00:18:27;10.60;10.00;6.00
69346;PMS5003;56494;43.536;5.048;2022-07-26T00:20:53;14.40;11.00;7.40
69346;PMS5003;56494;43.536;5.048;2022-07-26T00:23:20;10.80;10.80;7.00
69346;PMS5003;56494;43.536;5.048;2022-07-26T00:25:47;10.00;8.50;7.00
69346;PMS5003;56494;43.536;5.048;2022-07-26T00:28:14;12.00;10.50;7.00
69346;PMS5003;56494;43.536;5.048;2022-07-26T00:30:40;12.40;10.20;6.20
69346;PMS5003;56494;43.536;5.048;2022-07-26T00:33:07;11.60;10.00;6.60
69346;PMS5003;56494;43.536;5.048;2022-07-26T00:35:33;8.50;8.50;4.75
69346;PMS5003;56494;43.536;5.048;2022-07-26T00:38:00;12.40;9.60;8.00
69346;PMS5003;56494;43.536;5.048;2022-07-26T00:40:27;10.00;10.00;6.00
69346;PMS5003;56494;43.536;5.048;2022-07-26T00:42:53;10.00;10.00;6.00
69346;PMS5003;56494;43.536;5.048;2022-07-26T00:45:20;11.25;8.25;6.25
69346;PMS5003;56494;43.536;5.048;2022-07-26T00:47:47;9.40;7.60;6.00
69346;PMS5003;56494;43.536;5.048;2022-07-26T00:50:14;13.50;10.00;7.00
69346;PMS5003;56494;43.536;5.048;2022-07-26T00:52:42;7.50;7.50;5.00
69346;PMS5003;56494;43.536;5.048;2022-07-26T00:55:08;10.00;7.80;5.80
69346;PMS5003;56494;43.536;5.048;2022-07-26T00:57:35;8.75;8.75;5.75
69346;PMS5003;56494;43.536;5.048;2022-07-26T01:00:07;9.00;7.25;5.00
69346;PMS5003;56494;43.536;5.048;2022-07-26T01:02:34;10.25;9.00;7.00
69346;PMS5003;56494;43.536;5.048;2022-07-26T01:05:01;8.80;6.60;4.00
69346;PMS5003;56494;43.536;5.048;2022-07-26T01:07:28;9.25;9.00;6.00
69346;PMS5003;56494;43.536;5.048;2022-07-26T01:09:54;11.00;10.00;7.00
69346;PMS5003;56494;43.536;5.048;2022-07-26T01:12:22;9.25;7.00;5.00
69346;PMS5003;56494;43.536;5.048;2022-07-26T01:14:48;11.00;8.00;6.00
69346;PMS5003;56494;43.536;5.048;2022-07-26T01:17:15;9.40;7.00;6.00
69346;PMS5003;56494;43.536;5.048;2022-07-26T01:19:42;8.00;7.00;4.00
69346;PMS5003;56494;43.536;5.048;2022-07-26T01:22:09;13.33;6.00;3.33
69346;PMS5003;56494;43.536;5.048;2022-07-26T01:24:39;9.00;6.00;4.50
69346;PMS5003;56494;43.536;5.048;2022-07-26T01:27:06;8.25;7.00;4.50
69346;PMS5003;56494;43.536;5.048;2022-07-26T01:29:33;8.00;6.75;5.00
69346;PMS5003;56494;43.536;5.048;2022-07-26T01:32:01;11.80;5.60;4.60
69346;PMS5003;56494;43.536;5.048;2022-07-26T01:34:30;10.60;8.40;5.00
69346;PMS5003;56494;43.536;5.048;2022-07-26T01:36:57;5.60;5.60;3.60
69346;PMS5003;56494;43.536;5.048;2022-07-26T01:39:24;7.00;7.00;4.50
69346;PMS5003;56494;43.536;5.048;2022-07-26T01:41:51;21.40;6.40;4.40
69346;PMS5003;56494;43.536;5.048;2022-07-26T01:44:18;7.00;6.00;5.00
69346;PMS5003;56494;43.536;5.048;2022-07-26T01:46:45;7.00;7.00;4.40
69346;PMS5003;56494;43.536;5.048;2022-07-26T01:49:11;8.20;5.60;4.00
69346;PMS5003;56494;43.536;5.048;2022-07-26T01:51:38;10.00;7.00;5.00
69346;PMS5003;56494;43.536;5.048;2022-07-26T01:54:05;5.00;5.00;3.00
69346;PMS5003;56494;43.536;5.048;2022-07-26T01:56:32;7.00;7.00;4.00
69346;PMS5003;56494;43.536;5.048;2022-07-26T01:58:59;8.50;6.00;4.00
69346;PMS5003;56494;43.536;5.048;2022-07-26T02:01:26;9.50;5.50;4.25
69346;PMS5003;56494;43.536;5.048;2022-07-26T02:04:05;11.40;7.40;5.60
69346;PMS5003;56494;43.536;5.048;2022-07-26T02:06:32;7.40;5.40;3.40
69346;PMS5003;56494;43.536;5.048;2022-07-26T02:08:59;9.50;8.00;5.00
69346;PMS5003;56494;43.536;5.048;2022-07-26T02:11:27;5.40;5.40;3.00
69346;PMS5003;56494;43.536;5.048;2022-07-26T02:13:54;6.00;4.00;3.00
69346;PMS5003;56494;43.536;5.048;2022-07-26T02:16:20;4.75;4.75;3.25
69346;PMS5003;56494;43.536;5.048;2022-07-26T02:18:47;11.00;7.00;5.40
69346;PMS5003;56494;43.536;5.048;2022-07-26T02:21:14;5.40;5.40;4.00
69346;PMS5003;56494;43.536;5.048;2022-07-26T02:23:41;13.00;6.00;4.00
69346;PMS5003;56494;43.536;5.048;2022-07-26T02:26:07;4.60;4.60;2.80
69346;PMS5003;56494;43.536;5.048;2022-07-26T02:28:34;8.00;6.00;4.00
69346;PMS5003;56494;43.536;5.048;2022-07-26T02:31:01;8.50;5.50;3.50
69346;PMS5003;56494;43.536;5.048;2022-07-26T02:33:28;4.20;4.20;3.20
69346;PMS5003;56494;43.536;5.048;2022-07-26T02:35:54;6.00;4.00;3.00
69346;PMS5003;56494;43.536;5.048;2022-07-26T02:38:21;7.50;4.50;3.50
69346;PMS5003;56494;43.536;5.048;2022-07-26T02:40:50;7.00;4.00;3.00
69346;PMS5003;56494;43.536;5.048;2022-07-26T02:43:18;8.00;5.00;4.00
69346;PMS5003;56494;43.536;5.048;2022-07-26T02:45:45;6.25;5.00;4.00
69346;PMS5003;56494;43.536;5.048;2022-07-26T02:48:27;5.00;5.00;4.00
69346;PMS5003;56494;43.536;5.048;2022-07-26T02:50:54;10.00;6.00;4.00
69346;PMS5003;56494;43.536;5.048;2022-07-26T02:53:20;5.00;3.20;2.00
69346;PMS5003;56494;43.536;5.048;2022-07-26T02:55:47;5.00;5.00;4.00
69346;PMS5003;56494;43.536;5.048;2022-07-26T02:58:13;5.40;5.40;3.40
69346;PMS5003;56494;43.536;5.048;2022-07-26T03:00:40;3.80;3.80;2.80
69346;PMS5003;56494;43.536;5.048;2022-07-26T03:03:07;7.00;6.00;4.00
69346;PMS5003;56494;43.536;5.048;2022-07-26T03:05:33;3.75;3.75;3.25
69346;PMS5003;56494;43.536;5.048;2022-07-26T03:08:00;18.50;5.00;3.50
69346;PMS5003;56494;43.536;5.048;2022-07-26T03:10:27;5.00;4.00;3.25
69346;PMS5003;56494;43.536;5.048;2022-07-26T03:12:53;5.00;5.00;3.00
69346;PMS5003;56494;43.536;5.048;2022-07-26T03:15:20;7.50;5.00;4.00
69346;PMS5003;56494;43.536;5.048;2022-07-26T03:17:47;5.75;5.75;3.00
69346;PMS5003;56494;43.536;5.048;2022-07-26T03:20:13;4.75;2.50;1.50
69346;PMS5003;56494;43.536;5.048;2022-07-26T03:22:40;5.00;3.75;2.00
69346;PMS5003;56494;43.536;5.048;2022-07-26T03:25:07;5.20;4.20;2.80
69346;PMS5003;56494;43.536;5.048;2022-07-26T03:27:34;5.80;5.00;3.00
69346;PMS5003;56494;43.536;5.048;2022-07-26T03:30:00;5.00;3.00;2.40
69346;PMS5003;56494;43.536;5.048;2022-07-26T03:32:27;5.40;5.40;2.80
69346;PMS5003;56494;43.536;5.048;2022-07-26T03:34:54;4.00;4.00;3.00
69346;PMS5003;56494;43.536;5.048;2022-07-26T03:37:20;6.00;4.60;3.20
69346;PMS5003;56494;43.536;5.048;2022-07-26T03:39:48;8.00;5.00;4.00
69346;PMS5003;56494;43.536;5.048;2022-07-26T03:42:15;4.60;4.60;3.00
69346;PMS5003;56494;43.536;5.048;2022-07-26T03:44:41;3.00;3.00;3.00
69346;PMS5003;56494;43.536;5.048;2022-07-26T03:47:08;6.00;4.40;3.00
69346;PMS5003;56494;43.536;5.048;2022-07-26T03:49:35;6.00;4.00;3.00
69346;PMS5003;56494;43.536;5.048;2022-07-26T03:52:01;4.00;3.80;1.80
69346;PMS5003;56494;43.536;5.048;2022-07-26T03:54:28;5.40;4.40;2.20
69346;PMS5003;56494;43.536;5.048;2022-07-26T03:56:54;9.00;5.00;4.00
69346;PMS5003;56494;43.536;5.048;2022-07-26T03:59:21;4.80;4.80;2.80
69346;PMS5003;56494;43.536;5.048;2022-07-26T04:01:49;7.00;5.00;3.00
69346;PMS5003;56494;43.536;5.048;2022-07-26T04:04:17;4.00;3.00;3.00
69346;PMS5003;56494;43.536;5.048;2022-07-26T04:06:50;4.50;4.25;2.50
69346;PMS5003;56494;43.536;5.048;2022-07-26T04:09:18;5.25;4.00;2.00
69346;PMS5003;56494;43.536;5.048;2022-07-26T04:11:44;8.00;4.60;3.60
69346;PMS5003;56494;43.536;5.048;2022-07-26T04:14:13;8.00;5.40;3.40
69346;PMS5003;56494;43.536;5.048;2022-07-26T04:16:39;6.00;5.00;3.60
69346;PMS5003;56494;43.536;5.048;2022-07-26T04:19:09;4.60;4.60;2.80
69346;PMS5003;56494;43.536;5.048;2022-07-26T04:21:35;5.00;5.00;4.00
69346;PMS5003;56494;43.536;5.048;2022-07-26T04:24:02;6.00;6.00;3.40
69346;PMS5003;56494;43.536;5.048;2022-07-26T04:26:29;2.40;2.40;1.00
69346;PMS5003;56494;43.536;5.048;2022-07-26T04:28:55;5.60;4.60;2.60
69346;PMS5003;56494;43.536;5.048;2022-07-26T04:31:22;5.00;3.60;2.00
69346;PMS5003;56494;43.536;5.048;2022-07-26T04:33:49;5.00;3.60;2.40
69346;PMS5003;56494;43.536;5.048;2022-07-26T04:36:17;4.40;3.40;2.00
69346;PMS5003;56494;43.536;5.048;2022-07-26T04:38:43;9.80;5.60;2.60
69346;PMS5003;56494;43.536;5.048;2022-07-26T04:41:10;4.00;4.00;2.00
69346;PMS5003;56494;43.536;5.048;2022-07-26T04:43:36;4.00;4.00;3.00
69346;PMS5003;56494;43.536;5.048;2022-07-26T04:46:03;3.00;3.00;2.00
69346;PMS5003;56494;43.536;5.048;2022-07-26T04:48:30;2.00;2.00;1.60
69346;PMS5003;56494;43.536;5.048;2022-07-26T04:50:57;4.40;3.60;2.60
69346;PMS5003;56494;43.536;5.048;2022-07-26T04:53:23;3.00;3.00;2.00
69346;PMS5003;56494;43.536;5.048;2022-07-26T04:55:52;7.00;4.50;2.00
69346;PMS5003;56494;43.536;5.048;2022-07-26T04:58:20;4.00;3.00;2.00
69346;PMS5003;56494;43.536;5.048;2022-07-26T05:00:46;4.25;3.00;2.00
69346;PMS5003;56494;43.536;5.048;2022-07-26T05:03:33;3.50;3.50;1.75
69346;PMS5003;56494;43.536;5.048;2022-07-26T05:06:00;1.80;1.80;1.20
69346;PMS5003;56494;43.536;5.048;2022-07-26T05:08:27;3.50;3.00;2.00
69346;PMS5003;56494;43.536;5.048;2022-07-26T05:10:53;2.40;2.40;1.40
69346;PMS5003;56494;43.536;5.048;2022-07-26T05:13:21;3.50;3.50;1.50
69346;PMS5003;56494;43.536;5.048;2022-07-26T05:15:54;4.00;4.00;2.40
69346;PMS5003;56494;43.536;5.048;2022-07-26T05:18:21;5.60;1.80;1.60
69346;PMS5003;56494;43.536;5.048;2022-07-26T05:20:49;1.80;1.40;1.00
69346;PMS5003;56494;43.536;5.048;2022-07-26T05:23:31;5.00;3.00;1.50
69346;PMS5003;56494;43.536;5.048;2022-07-26T05:25:57;2.50;2.50;1.50
69346;PMS5003;56494;43.536;5.048;2022-07-26T05:28:24;2.50;2.50;2.00
69346;PMS5003;56494;43.536;5.048;2022-07-26T05:30:51;3.00;2.00;2.00
69346;PMS5003;56494;43.536;5.048;2022-07-26T05:33:18;2.00;2.00;1.00
69346;PMS5003;56494;43.536;5.048;2022-07-26T05:35:44;3.80;1.20;1.00
69346;PMS5003;56494;43.536;5.048;2022-07-26T05:38:11;2.40;2.40;1.00
69346;PMS5003;56494;43.536;5.048;2022-07-26T05:40:37;4.00;2.75;2.00
69346;PMS5003;56494;43.536;5.048;2022-07-26T05:43:04;1.60;1.60;1.20
69346;PMS5003;56494;43.536;5.048;2022-07-26T05:45:33;5.00;4.00;1.00
69346;PMS5003;56494;43.536;5.048;2022-07-26T05:48:04;4.20;2.80;1.80
69346;PMS5003;56494;43.536;5.048;2022-07-26T05:50:31;2.60;2.00;1.00
69346;PMS5003;56494;43.536;5.048;2022-07-26T05:53:00;3.00;2.00;1.00
69346;PMS5003;56494;43.536;5.048;2022-07-26T05:55:27;1.25;1.25;1.25
69346;PMS5003;56494;43.536;5.048;2022-07-26T05:57:54;2.60;2.60;1.40
69346;PMS5003;56494;43.536;5.048;2022-07-26T06:00:20;4.00;2.00;1.00
69346;PMS5003;56494;43.536;5.048;2022-07-26T06:02:56;1.00;1.00;1.00
69346;PMS5003;56494;43.536;5.048;2022-07-26T06:05:23;1.00;1.00;1.00
69346;PMS5003;56494;43.536;5.048;2022-07-26T06:07:51;2.00;2.00;1.00
69346;PMS5003;56494;43.536;5.048;2022-07-26T06:10:36;1.75;1.75;1.00
69346;PMS5003;56494;43.536;5.048;2022-07-26T06:13:11;2.00;0.40;0.40
69346;PMS5003;56494;43.536;5.048;2022-07-26T06:15:51;2.25;2.25;1.25
69346;PMS5003;56494;43.536;5.048;2022-07-26T06:18:18;2.20;0.80;0.00
69346;PMS5003;56494;43.536;5.048;2022-07-26T06:20:47;4.00;3.00;1.00
69346;PMS5003;56494;43.536;5.048;2022-07-26T06:23:14;2.00;2.00;1.00
69346;PMS5003;56494;43.536;5.048;2022-07-26T06:25:47;3.00;2.00;1.00
69346;PMS5003;56494;43.536;5.048;2022-07-26T06:28:21;2.00;2.00;1.00
69346;PMS5003;56494;43.536;5.048;2022-07-26T06:30:55;5.00;2.00;2.00
69346;PMS5003;56494;43.536;5.048;2022-07-26T06:33:31;2.25;1.00;0.00
69346;PMS5003;56494;43.536;5.048;2022-07-26T06:36:07;3.00;1.00;1.00
69346;PMS5003;56494;43.536;5.048;2022-07-26T06:38:34;3.00;3.00;2.00
69346;PMS5003;56494;43.536;5.048;2022-07-26T06:41:01;1.50;1.50;1.00
69346;PMS5003;56494;43.536;5.048;2022-07-26T06:43:30;1.00;0.33;0.00
69346;PMS5003;56494;43.536;5.048;2022-07-26T06:46:30;3.00;1.80;1.00
69346;PMS5003;56494;43.536;5.048;2022-07-26T06:48:57;1.00;1.00;1.00
69346;PMS5003;56494;43.536;5.048;2022-07-26T06:53:57;1.00;1.00;0.00
69346;PMS5003;56494;43.536;5.048;2022-07-26T06:56:28;2.75;2.75;1.00
69346;PMS5003;56494;43.536;5.048;2022-07-26T06:59:03;1.00;1.00;0.00
69346;PMS5003;56494;43.536;5.048;2022-07-26T07:01:34;1.00;1.00;1.00
69346;PMS5003;56494;43.536;5.048;2022-07-26T07:04:21;2.50;2.50;2.00
69346;PMS5003;56494;43.536;5.048;2022-07-26T07:07:02;3.00;2.00;1.00
69346;PMS5003;56494;43.536;5.048;2022-07-26T07:09:32;2.00;2.00;1.00
69346;PMS5003;56494;43.536;5.048;2022-07-26T07:12:01;1.00;1.00;1.00
69346;PMS5003;56494;43.536;5.048;2022-07-26T07:14:35;2.00;2.00;1.00
69346;PMS5003;56494;43.536;5.048;2022-07-26T07:17:02;1.00;1.00;1.00
69346;PMS5003;56494;43.536;5.048;2022-07-26T07:19:40;1.40;1.40;0.40
69346;PMS5003;56494;43.536;5.048;2022-07-26T07:22:06;2.00;2.00;1.00
69346;PMS5003;56494;43.536;5.048;2022-07-26T07:24:38;4.80;1.20;0.40
69346;PMS5003;56494;43.536;5.048;2022-07-26T07:27:04;4.00;2.00;1.00
69346;PMS5003;56494;43.536;5.048;2022-07-26T07:29:32;3.00;3.00;1.40
69346;PMS5003;56494;43.536;5.048;2022-07-26T07:31:58;2.00;2.00;1.00
69346;PMS5003;56494;43.536;5.048;2022-07-26T07:34:28;4.60;3.00;2.00
69346;PMS5003;56494;43.536;5.048;2022-07-26T07:36:55;1.00;1.00;1.00
69346;PMS5003;56494;43.536;5.048;2022-07-26T07:39:22;4.00;2.60;2.00
69346;PMS5003;56494;43.536;5.048;2022-07-26T07:41:52;2.00;2.00;1.00
69346;PMS5003;56494;43.536;5.048;2022-07-26T07:44:36;3.80;2.00;1.00
69346;PMS5003;56494;43.536;5.048;2022-07-26T07:47:02;3.00;2.00;1.00
69346;PMS5003;56494;43.536;5.048;2022-07-26T07:49:29;1.00;1.00;1.00
69346;PMS5003;56494;43.536;5.048;2022-07-26T07:51:57;2.00;2.00;1.00
69346;PMS5003;56494;43.536;5.048;2022-07-26T07:54:24;1.40;1.40;1.40
69346;PMS5003;56494;43.536;5.048;2022-07-26T07:56:50;2.00;2.00;1.00
69346;PMS5003;56494;43.536;5.048;2022-07-26T07:59:18;5.00;2.00;1.00
69346;PMS5003;56494;43.536;5.048;2022-07-26T08:01:47;3.60;3.60;2.00
69346;PMS5003;56494;43.536;5.048;2022-07-26T08:04:22;2.20;2.20;1.20
69346;PMS5003;56494;43.536;5.048;2022-07-26T08:07:21;4.00;4.00;1.60
69346;PMS5003;56494;43.536;5.048;2022-07-26T08:10:41;2.25;2.00;1.00
69346;PMS5003;56494;43.536;5.048;2022-07-26T08:13:51;2.00;2.00;1.00
69346;PMS5003;56494;43.536;5.048;2022-07-26T08:16:54;3.33;2.00;1.33
69346;PMS5003;56494;43.536;5.048;2022-07-26T08:26:47;3.00;3.00;1.40
69346;PMS5003;56494;43.536;5.048;2022-07-26T08:32:51;3.75;3.75;1.75
69346;PMS5003;56494;43.536;5.048;2022-07-26T08:35:17;3.50;3.50;2.50
69346;PMS5003;56494;43.536;5.048;2022-07-26T08:41:00;2.60;1.60;1.20
69346;PMS5003;56494;43.536;5.048;2022-07-26T08:43:27;3.00;2.00;1.50
69346;PMS5003;56494;43.536;5.048;2022-07-26T08:46:20;3.00;3.00;2.00
69346;PMS5003;56494;43.536;5.048;2022-07-26T08:49:01;2.00;2.00;2.00
69346;PMS5003;56494;43.536;5.048;2022-07-26T08:51:41;2.00;2.00;2.00
69346;PMS5003;56494;43.536;5.048;2022-07-26T08:54:18;6.00;6.00;4.00
69346;PMS5003;56494;43.536;5.048;2022-07-26T08:56:56;4.00;2.60;2.00
69346;PMS5003;56494;43.536;5.048;2022-07-26T08:59:24;3.50;3.50;1.50
69346;PMS5003;56494;43.536;5.048;2022-07-26T09:01:56;3.40;3.00;1.00
69346;PMS5003;56494;43.536;5.048;2022-07-26T09:04:24;12.20;3.80;2.00
69346;PMS5003;56494;43.536;5.048;2022-07-26T09:07:05;4.40;4.40;3.00
69346;PMS5003;56494;43.536;5.048;2022-07-26T09:09:33;6.50;6.50;4.00
69346;PMS5003;56494;43.536;5.048;2022-07-26T09:12:12;4.75;3.00;2.00
69346;PMS5003;56494;43.536;5.048;2022-07-26T09:17:54;4.00;4.00;3.00
69346;PMS5003;56494;43.536;5.048;2022-07-26T09:23:34;4.00;3.50;2.50
69346;PMS5003;56494;43.536;5.048;2022-07-26T09:26:04;3.60;1.60;1.00
69346;PMS5003;56494;43.536;5.048;2022-07-26T09:28:32;6.20;3.20;2.80
69346;PMS5003;56494;43.536;5.048;2022-07-26T09:31:02;3.00;3.00;2.40
69346;PMS5003;56494;43.536;5.048;2022-07-26T09:34:04;2.60;2.60;1.60
69346;PMS5003;56494;43.536;5.048;2022-07-26T09:36:58;4.00;3.40;1.60
69346;PMS5003;56494;43.536;5.048;2022-07-26T09:46:57;3.00;3.00;2.50
69346;PMS5003;56494;43.536;5.048;2022-07-26T09:59:21;4.50;3.25;1.75
69346;PMS5003;56494;43.536;5.048;2022-07-26T10:01:53;3.60;3.60;2.60
69346;PMS5003;56494;43.536;5.048;2022-07-26T10:10:52;4.00;3.00;1.40
69346;PMS5003;56494;43.536;5.048;2022-07-26T10:13:36;4.25;3.00;2.00
69346;PMS5003;56494;43.536;5.048;2022-07-26T10:18:51;3.80;3.60;3.00
69346;PMS5003;56494;43.536;5.048;2022-07-26T10:21:31;3.00;3.00;2.60
69346;PMS5003;56494;43.536;5.048;2022-07-26T10:30:46;3.60;3.60;2.00
69346;PMS5003;56494;43.536;5.048;2022-07-26T10:36:38;5.75;4.00;3.00
69346;PMS5003;56494;43.536;5.048;2022-07-26T10:39:32;4.00;4.00;2.00
69346;PMS5003;56494;43.536;5.048;2022-07-26T10:41:59;4.25;3.25;2.75
69346;PMS5003;56494;43.536;5.048;2022-07-26T10:44:28;3.00;3.00;2.00
69346;PMS5003;56494;43.536;5.048;2022-07-26T10:56:59;3.40;3.00;2.00
69346;PMS5003;56494;43.536;5.048;2022-07-26T11:06:20;4.25;2.75;1.75
69346;PMS5003;56494;43.536;5.048;2022-07-26T11:08:47;3.50;2.00;1.00
69346;PMS5003;56494;43.536;5.048;2022-07-26T11:14:37;3.00;3.00;2.00
69346;PMS5003;56494;43.536;5.048;2022-07-26T11:17:04;2.40;2.40;1.40
69346;PMS5003;56494;43.536;5.048;2022-07-26T11:19:30;3.80;2.60;1.00
69346;PMS5003;56494;43.536;5.048;2022-07-26T11:22:04;11.00;4.00;2.00
69346;PMS5003;56494;43.536;5.048;2022-07-26T11:24:30;2.60;2.60;1.40
69346;PMS5003;56494;43.536;5.048;2022-07-26T11:27:02;5.00;4.00;3.00
69346;PMS5003;56494;43.536;5.048;2022-07-26T11:29:33;1.60;1.60;0.60
69346;PMS5003;56494;43.536;5.048;2022-07-26T11:32:16;3.75;2.25;0.50
69346;PMS5003;56494;43.536;5.048;2022-07-26T11:34:58;4.40;4.00;2.00
69346;PMS5003;56494;43.536;5.048;2022-07-26T11:37:25;5.60;3.00;2.00
69346;PMS5003;56494;43.536;5.048;2022-07-26T11:39:54;3.80;2.20;1.80
69346;PMS5003;56494;43.536;5.048;2022-07-26T11:42:30;4.20;3.00;2.00
69346;PMS5003;56494;43.536;5.048;2022-07-26T11:44:59;6.00;3.00;2.00
69346;PMS5003;56494;43.536;5.048;2022-07-26T11:47:26;4.75;3.75;1.75
69346;PMS5003;56494;43.536;5.048;2022-07-26T11:49:53;2.20;2.20;1.20
69346;PMS5003;56494;43.536;5.048;2022-07-26T11:52:40;4.40;4.00;1.00
69346;PMS5003;56494;43.536;5.048;2022-07-26T11:55:10;3.20;3.20;1.80
69346;PMS5003;56494;43.536;5.048;2022-07-26T11:57:39;2.60;2.60;2.00
69346;PMS5003;56494;43.536;5.048;2022-07-26T12:00:06;6.00;2.50;1.50
69346;PMS5003;56494;43.536;5.048;2022-07-26T12:02:33;2.20;2.00;2.00
69346;PMS5003;56494;43.536;5.048;2022-07-26T12:05:16;4.00;3.00;2.00
69346;PMS5003;56494;43.536;5.048;2022-07-26T12:07:54;3.75;2.75;1.75
69346;PMS5003;56494;43.536;5.048;2022-07-26T12:10:22;1.80;1.80;1.00
69346;PMS5003;56494;43.536;5.048;2022-07-26T12:12:49;2.00;2.00;1.50
69346;PMS5003;56494;43.536;5.048;2022-07-26T12:16:32;2.80;2.80;1.80
69346;PMS5003;56494;43.536;5.048;2022-07-26T12:32:52;2.00;2.00;2.00
69346;PMS5003;56494;43.536;5.048;2022-07-26T12:35:28;4.20;3.80;3.00
69346;PMS5003;56494;43.536;5.048;2022-07-26T12:55:26;2.00;2.00;1.80
69346;PMS5003;56494;43.536;5.048;2022-07-26T12:57:56;2.00;2.00;1.40
69346;PMS5003;56494;43.536;5.048;2022-07-26T13:00:31;5.60;3.00;2.00
69346;PMS5003;56494;43.536;5.048;2022-07-26T13:03:33;3.00;3.00;2.00
69346;PMS5003;56494;43.536;5.048;2022-07-26T13:06:01;4.00;4.00;3.00
69346;PMS5003;56494;43.536;5.048;2022-07-26T13:08:29;3.00;3.00;2.00
69346;PMS5003;56494;43.536;5.048;2022-07-26T13:11:07;4.00;4.00;2.00
69346;PMS5003;56494;43.536;5.048;2022-07-26T13:13:43;5.00;2.00;2.00
69346;PMS5003;56494;43.536;5.048;2022-07-26T13:19:56;4.00;3.00;2.00
69346;PMS5003;56494;43.536;5.048;2022-07-26T13:22:28;1.40;1.00;0.60
69346;PMS5003;56494;43.536;5.048;2022-07-26T13:24:55;2.00;2.00;1.60
69346;PMS5003;56494;43.536;5.048;2022-07-26T13:27:34;2.50;2.50;1.50
69346;PMS5003;56494;43.536;5.048;2022-07-26T13:30:13;5.00;3.20;1.20
69346;PMS5003;56494;43.536;5.048;2022-07-26T13:32:46;3.40;3.00;1.00
69346;PMS5003;56494;43.536;5.048;2022-07-26T13:35:25;4.00;2.00;2.00
69346;PMS5003;56494;43.536;5.048;2022-07-26T13:38:06;4.00;2.75;2.00
69346;PMS5003;56494;43.536;5.048;2022-07-26T13:40:47;3.00;2.50;2.00
69346;PMS5003;56494;43.536;5.048;2022-07-26T13:43:27;1.00;1.00;0.75
69346;PMS5003;56494;43.536;5.048;2022-07-26T13:46:00;2.50;2.50;1.50
69346;PMS5003;56494;43.536;5.048;2022-07-26T13:48:42;4.75;3.00;2.00
69346;PMS5003;56494;43.536;5.048;2022-07-26T13:51:29;3.00;3.00;2.00
69346;PMS5003;56494;43.536;5.048;2022-07-26T13:54:47;3.00;3.00;2.00
69346;PMS5003;56494;43.536;5.048;2022-07-26T14:01:37;2.60;2.00;2.00
69346;PMS5003;56494;43.536;5.048;2022-07-26T14:26:11;2.20;2.20;2.00
69346;PMS5003;56494;43.536;5.048;2022-07-26T14:28:39;4.00;2.80;2.00
69346;PMS5003;56494;43.536;5.048;2022-07-26T14:31:11;5.00;5.00;3.00
69346;PMS5003;56494;43.536;5.048;2022-07-26T14:33:48;3.25;2.00;1.25
69346;PMS5003;56494;43.536;5.048;2022-07-26T14:39:07;3.00;2.00;2.00
69346;PMS5003;56494;43.536;5.048;2022-07-26T14:41:35;2.00;2.00;1.40
69346;PMS5003;56494;43.536;5.048;2022-07-26T14:44:21;3.00;2.40;2.00
69346;PMS5003;56494;43.536;5.048;2022-07-26T14:46:48;2.00;2.00;2.00
69346;PMS5003;56494;43.536;5.048;2022-07-26T14:49:34;5.00;2.00;2.00
69346;PMS5003;56494;43.536;5.048;2022-07-26T14:52:07;6.00;3.00;2.00
69346;PMS5003;56494;43.536;5.048;2022-07-26T14:54:52;1.75;1.75;1.75
69346;PMS5003;56494;43.536;5.048;2022-07-26T14:57:22;2.00;2.00;1.00
69346;PMS5003;56494;43.536;5.048;2022-07-26T14:59:53;3.20;3.20;2.80
69346;PMS5003;56494;43.536;5.048;2022-07-26T15:02:23;4.40;3.40;2.00
69346;PMS5003;56494;43.536;5.048;2022-07-26T15:04:53;5.00;4.00;2.00
69346;PMS5003;56494;43.536;5.048;2022-07-26T15:07:20;1.50;1.50;1.00
69346;PMS5003;56494;43.536;5.048;2022-07-26T15:09:47;2.00;2.00;1.00
69346;PMS5003;56494;43.536;5.048;2022-07-26T15:12:14;3.00;3.00;2.00
69346;PMS5003;56494;43.536;5.048;2022-07-26T15:14:41;3.00;1.00;0.75
69346;PMS5003;56494;43.536;5.048;2022-07-26T15:17:12;5.00;4.00;2.00
69346;PMS5003;56494;43.536;5.048;2022-07-26T15:19:39;3.40;2.40;1.80
69346;PMS5003;56494;43.536;5.048;2022-07-26T15:22:06;4.00;2.80;1.00
69346;PMS5003;56494;43.536;5.048;2022-07-26T15:24:36;1.60;1.60;0.60
69346;PMS5003;56494;43.536;5.048;2022-07-26T15:27:20;3.25;2.50;1.50
69346;PMS5003;56494;43.536;5.048;2022-07-26T15:29:49;4.25;1.25;1.25
69346;PMS5003;56494;43.536;5.048;2022-07-26T15:32:35;1.25;1.25;0.50
69346;PMS5003;56494;43.536;5.048;2022-07-26T15:35:13;4.80;2.80;1.80
69346;PMS5003;56494;43.536;5.048;2022-07-26T15:37:40;2.00;2.00;1.00
69346;PMS5003;56494;43.536;5.048;2022-07-26T15:40:11;3.60;3.60;2.00
69346;PMS5003;56494;43.536;5.048;2022-07-26T15:42:44;2.00;2.00;1.20
69346;PMS5003;56494;43.536;5.048;2022-07-26T15:45:18;5.00;3.20;2.00
69346;PMS5003;56494;43.536;5.048;2022-07-26T15:47:50;1.20;1.20;1.20
69346;PMS5003;56494;43.536;5.048;2022-07-26T15:50:21;5.00;3.50;2.00
69346;PMS5003;56494;43.536;5.048;2022-07-26T15:52:48;2.00;2.00;1.00
69346;PMS5003;56494;43.536;5.048;2022-07-26T15:55:18;3.00;1.50;1.00
69346;PMS5003;56494;43.536;5.048;2022-07-26T15:57:45;1.80;1.80;0.80
69346;PMS5003;56494;43.536;5.048;2022-07-26T16:00:12;1.60;1.60;1.00
69346;PMS5003;56494;43.536;5.048;2022-07-26T16:02:39;3.80;3.00;2.00
69346;PMS5003;56494;43.536;5.048;2022-07-26T16:05:17;2.50;1.50;1.00
69346;PMS5003;56494;43.536;5.048;2022-07-26T16:07:44;2.00;2.00;1.00
69346;PMS5003;56494;43.536;5.048;2022-07-26T16:10:12;5.00;3.00;1.00
69346;PMS5003;56494;43.536;5.048;2022-07-26T16:12:39;3.00;3.00;2.00
69346;PMS5003;56494;43.536;5.048;2022-07-26T16:15:07;3.00;1.80;1.00
69346;PMS5003;56494;43.536;5.048;2022-07-26T16:17:34;4.40;3.60;1.40
69346;PMS5003;56494;43.536;5.048;2022-07-26T16:20:01;2.00;2.00;2.00
69346;PMS5003;56494;43.536;5.048;2022-07-26T16:22:28;3.75;3.00;1.25
69346;PMS5003;56494;43.536;5.048;2022-07-26T16:24:57;4.00;4.00;2.00
69346;PMS5003;56494;43.536;5.048;2022-07-26T16:27:23;3.00;3.00;2.00
69346;PMS5003;56494;43.536;5.048;2022-07-26T16:29:50;3.00;3.00;2.00
69346;PMS5003;56494;43.536;5.048;2022-07-26T16:32:18;3.75;3.75;2.00
69346;PMS5003;56494;43.536;5.048;2022-07-26T16:34:46;3.00;2.00;1.00
69346;PMS5003;56494;43.536;5.048;2022-07-26T16:37:13;2.40;2.40;2.00
69346;PMS5003;56494;43.536;5.048;2022-07-26T16:39:40;4.00;3.00;3.00
69346;PMS5003;56494;43.536;5.048;2022-07-26T16:42:07;5.00;3.50;2.00
69346;PMS5003;56494;43.536;5.048;2022-07-26T16:44:34;4.75;3.00;3.00
69346;PMS5003;56494;43.536;5.048;2022-07-26T16:47:02;3.75;3.75;2.25
69346;PMS5003;56494;43.536;5.048;2022-07-26T16:49:29;3.00;3.00;2.00
69346;PMS5003;56494;43.536;5.048;2022-07-26T16:51:56;3.00;3.00;1.50
69346;PMS5003;56494;43.536;5.048;2022-07-26T16:54:23;7.00;4.00;3.00
69346;PMS5003;56494;43.536;5.048;2022-07-26T16:56:49;5.00;4.00;3.00
69346;PMS5003;56494;43.536;5.048;2022-07-26T16:59:16;3.60;2.20;1.00
69346;PMS5003;56494;43.536;5.048;2022-07-26T17:01:43;3.00;3.00;1.00
69346;PMS5003;56494;43.536;5.048;2022-07-26T17:04:10;3.00;3.00;2.25
69346;PMS5003;56494;43.536;5.048;2022-07-26T17:06:37;5.00;2.00;2.00